sensor_id;sensor_type;location;lat;lon;timestamp;P1;durP1;ratioP1;P2;durP2;ratioP2
36415;SDS011;22447;44.530;18.620;2024-01-25T00:01:19;537.03;;;271.50;;
36415;SDS011;22447;44.530;18.620;2024-01-25T00:03:45;604.20;;;306.90;;
36415;SDS011;22447;44.530;18.620;2024-01-25T00:06:10;584.63;;;299.05;;
36415;SDS011;22447;44.530;18.620;2024-01-25T00:08:36;541.05;;;268.15;;
36415;SDS011;22447;44.530;18.620;2024-01-25T00:11:02;522.90;;;254.70;;
36415;SDS011;22447;44.530;18.620;2024-01-25T00:13:29;501.30;;;245.05;;
36415;SDS011;22447;44.530;18.620;2024-01-25T00:15:55;528.22;;;256.98;;
36415;SDS011;22447;44.530;18.620;2024-01-25T00:18:21;458.33;;;216.48;;
36415;SDS011;22447;44.530;18.620;2024-01-25T00:20:47;395.10;;;180.88;;
36415;SDS011;22447;44.530;18.620;2024-01-25T00:23:13;395.33;;;177.13;;
36415;SDS011;22447;44.530;18.620;2024-01-25T00:25:38;383.80;;;174.18;;
36415;SDS011;22447;44.530;18.620;2024-01-25T00:28:04;397.90;;;178.45;;
36415;SDS011;22447;44.530;18.620;2024-01-25T00:30:30;393.67;;;179.63;;
36415;SDS011;22447;44.530;18.620;2024-01-25T00:32:56;400.23;;;185.90;;
36415;SDS011;22447;44.530;18.620;2024-01-25T00:35:23;398.65;;;189.23;;
36415;SDS011;22447;44.530;18.620;2024-01-25T00:37:50;401.38;;;184.70;;
36415;SDS011;22447;44.530;18.620;2024-01-25T00:40:16;395.88;;;186.93;;
36415;SDS011;22447;44.530;18.620;2024-01-25T00:42:44;380.55;;;181.52;;
36415;SDS011;22447;44.530;18.620;2024-01-25T00:45:21;394.90;;;188.23;;
36415;SDS011;22447;44.530;18.620;2024-01-25T00:47:48;437.55;;;214.25;;
36415;SDS011;22447;44.530;18.620;2024-01-25T00:50:15;460.77;;;223.60;;
36415;SDS011;22447;44.530;18.620;2024-01-25T00:52:45;477.52;;;228.38;;
36415;SDS011;22447;44.530;18.620;2024-01-25T00:55:12;447.50;;;219.43;;
36415;SDS011;22447;44.530;18.620;2024-01-25T00:57:38;488.70;;;231.77;;
36415;SDS011;22447;44.530;18.620;2024-01-25T01:00:05;516.88;;;247.63;;
36415;SDS011;22447;44.530;18.620;2024-01-25T01:02:34;546.45;;;274.88;;
36415;SDS011;22447;44.530;18.620;2024-01-25T01:05:02;532.33;;;258.85;;
36415;SDS011;22447;44.530;18.620;2024-01-25T01:07:29;534.05;;;267.13;;
36415;SDS011;22447;44.530;18.620;2024-01-25T01:09:55;566.30;;;284.95;;
36415;SDS011;22447;44.530;18.620;2024-01-25T01:12:20;570.15;;;282.55;;
36415;SDS011;22447;44.530;18.620;2024-01-25T01:14:46;573.20;;;277.52;;
36415;SDS011;22447;44.530;18.620;2024-01-25T01:17:13;575.58;;;278.65;;
36415;SDS011;22447;44.530;18.620;2024-01-25T01:19:39;541.97;;;266.10;;
36415;SDS011;22447;44.530;18.620;2024-01-25T01:22:05;526.85;;;256.63;;
36415;SDS011;22447;44.530;18.620;2024-01-25T01:24:31;547.38;;;267.95;;
36415;SDS011;22447;44.530;18.620;2024-01-25T01:26:57;527.60;;;252.30;;
36415;SDS011;22447;44.530;18.620;2024-01-25T01:29:24;535.67;;;249.82;;
36415;SDS011;22447;44.530;18.620;2024-01-25T01:31:50;504.48;;;228.80;;
36415;SDS011;22447;44.530;18.620;2024-01-25T01:34:16;479.42;;;223.45;;
36415;SDS011;22447;44.530;18.620;2024-01-25T01:36:43;476.45;;;219.75;;
36415;SDS011;22447;44.530;18.620;2024-01-25T01:39:09;456.85;;;216.43;;
36415;SDS011;22447;44.530;18.620;2024-01-25T01:41:35;439.10;;;205.75;;
36415;SDS011;22447;44.530;18.620;2024-01-25T01:44:01;422.00;;;199.98;;
36415;SDS011;22447;44.530;18.620;2024-01-25T01:46:34;419.85;;;196.27;;
36415;SDS011;22447;44.530;18.620;2024-01-25T01:49:08;397.65;;;189.80;;
36415;SDS011;22447;44.530;18.620;2024-01-25T01:51:37;398.23;;;187.00;;
36415;SDS011;22447;44.530;18.620;2024-01-25T01:54:06;378.40;;;182.27;;
36415;SDS011;22447;44.530;18.620;2024-01-25T01:56:32;393.35;;;186.25;;
36415;SDS011;22447;44.530;18.620;2024-01-25T01:59:02;433.58;;;210.18;;
36415;SDS011;22447;44.530;18.620;2024-01-25T02:01:29;471.55;;;222.77;;
36415;SDS011;22447;44.530;18.620;2024-01-25T02:03:56;368.48;;;172.23;;
36415;SDS011;22447;44.530;18.620;2024-01-25T02:06:23;363.98;;;173.00;;
36415;SDS011;22447;44.530;18.620;2024-01-25T02:08:49;344.92;;;161.98;;
36415;SDS011;22447;44.530;18.620;2024-01-25T02:11:19;313.48;;;147.68;;
36415;SDS011;22447;44.530;18.620;2024-01-25T02:13:45;303.10;;;146.02;;
36415;SDS011;22447;44.530;18.620;2024-01-25T02:16:12;307.98;;;148.43;;
36415;SDS011;22447;44.530;18.620;2024-01-25T02:18:40;313.80;;;154.38;;
36415;SDS011;22447;44.530;18.620;2024-01-25T02:21:06;287.45;;;143.30;;
36415;SDS011;22447;44.530;18.620;2024-01-25T02:23:33;324.67;;;148.23;;
36415;SDS011;22447;44.530;18.620;2024-01-25T02:25:58;359.63;;;158.90;;
36415;SDS011;22447;44.530;18.620;2024-01-25T02:28:24;349.08;;;155.48;;
36415;SDS011;22447;44.530;18.620;2024-01-25T02:30:50;354.15;;;162.18;;
36415;SDS011;22447;44.530;18.620;2024-01-25T02:33:16;350.90;;;161.85;;
36415;SDS011;22447;44.530;18.620;2024-01-25T02:35:42;388.55;;;184.00;;
36415;SDS011;22447;44.530;18.620;2024-01-25T02:38:08;392.25;;;188.18;;
36415;SDS011;22447;44.530;18.620;2024-01-25T02:40:34;373.75;;;184.27;;
36415;SDS011;22447;44.530;18.620;2024-01-25T02:43:00;366.83;;;179.05;;
36415;SDS011;22447;44.530;18.620;2024-01-25T02:45:26;365.98;;;179.23;;
36415;SDS011;22447;44.530;18.620;2024-01-25T02:47:52;350.63;;;175.48;;
36415;SDS011;22447;44.530;18.620;2024-01-25T02:50:18;353.80;;;175.13;;
36415;SDS011;22447;44.530;18.620;2024-01-25T02:52:43;352.17;;;172.68;;
36415;SDS011;22447;44.530;18.620;2024-01-25T02:55:09;345.85;;;168.27;;
36415;SDS011;22447;44.530;18.620;2024-01-25T02:57:35;333.52;;;164.75;;
36415;SDS011;22447;44.530;18.620;2024-01-25T03:00:01;334.65;;;163.27;;
36415;SDS011;22447;44.530;18.620;2024-01-25T03:02:28;327.35;;;161.88;;
36415;SDS011;22447;44.530;18.620;2024-01-25T03:04:54;327.30;;;165.93;;
36415;SDS011;22447;44.530;18.620;2024-01-25T03:07:20;326.52;;;162.55;;
36415;SDS011;22447;44.530;18.620;2024-01-25T03:09:45;308.77;;;152.15;;
36415;SDS011;22447;44.530;18.620;2024-01-25T03:12:11;315.60;;;155.32;;
36415;SDS011;22447;44.530;18.620;2024-01-25T03:14:37;313.55;;;152.40;;
36415;SDS011;22447;44.530;18.620;2024-01-25T03:17:03;328.30;;;156.27;;
36415;SDS011;22447;44.530;18.620;2024-01-25T03:19:29;322.92;;;163.93;;
36415;SDS011;22447;44.530;18.620;2024-01-25T03:21:55;309.75;;;155.30;;
36415;SDS011;22447;44.530;18.620;2024-01-25T03:24:21;315.27;;;152.38;;
36415;SDS011;22447;44.530;18.620;2024-01-25T03:26:47;281.63;;;144.30;;
36415;SDS011;22447;44.530;18.620;2024-01-25T03:29:13;277.95;;;137.65;;
36415;SDS011;22447;44.530;18.620;2024-01-25T03:31:39;272.85;;;134.55;;
36415;SDS011;22447;44.530;18.620;2024-01-25T03:34:05;286.63;;;141.38;;
36415;SDS011;22447;44.530;18.620;2024-01-25T03:36:31;289.70;;;143.20;;
36415;SDS011;22447;44.530;18.620;2024-01-25T03:38:57;296.42;;;142.73;;
36415;SDS011;22447;44.530;18.620;2024-01-25T03:41:23;280.73;;;138.23;;
36415;SDS011;22447;44.530;18.620;2024-01-25T03:43:50;285.38;;;140.80;;
36415;SDS011;22447;44.530;18.620;2024-01-25T03:46:16;289.30;;;142.18;;
36415;SDS011;22447;44.530;18.620;2024-01-25T03:48:42;261.00;;;130.75;;
36415;SDS011;22447;44.530;18.620;2024-01-25T03:51:08;274.90;;;134.45;;
36415;SDS011;22447;44.530;18.620;2024-01-25T03:53:34;280.55;;;137.13;;
36415;SDS011;22447;44.530;18.620;2024-01-25T03:56:00;286.75;;;139.52;;
36415;SDS011;22447;44.530;18.620;2024-01-25T03:58:26;290.75;;;144.57;;
36415;SDS011;22447;44.530;18.620;2024-01-25T04:00:52;281.42;;;142.90;;
36415;SDS011;22447;44.530;18.620;2024-01-25T04:03:18;407.50;;;219.57;;
36415;SDS011;22447;44.530;18.620;2024-01-25T04:05:44;297.55;;;146.75;;
36415;SDS011;22447;44.530;18.620;2024-01-25T04:08:10;295.50;;;141.32;;
36415;SDS011;22447;44.530;18.620;2024-01-25T04:10:35;312.77;;;149.32;;
36415;SDS011;22447;44.530;18.620;2024-01-25T04:13:01;317.15;;;157.73;;
36415;SDS011;22447;44.530;18.620;2024-01-25T04:15:29;296.73;;;140.00;;
36415;SDS011;22447;44.530;18.620;2024-01-25T04:17:56;284.48;;;136.65;;
36415;SDS011;22447;44.530;18.620;2024-01-25T04:20:22;288.33;;;138.00;;
36415;SDS011;22447;44.530;18.620;2024-01-25T04:22:48;282.73;;;133.50;;
36415;SDS011;22447;44.530;18.620;2024-01-25T04:25:13;277.33;;;135.00;;
36415;SDS011;22447;44.530;18.620;2024-01-25T04:27:40;281.10;;;132.15;;
36415;SDS011;22447;44.530;18.620;2024-01-25T04:30:06;263.83;;;130.75;;
36415;SDS011;22447;44.530;18.620;2024-01-25T04:32:33;263.05;;;128.95;;
36415;SDS011;22447;44.530;18.620;2024-01-25T04:34:59;254.55;;;123.97;;
36415;SDS011;22447;44.530;18.620;2024-01-25T04:37:25;288.13;;;138.18;;
36415;SDS011;22447;44.530;18.620;2024-01-25T04:39:51;273.98;;;133.90;;
36415;SDS011;22447;44.530;18.620;2024-01-25T04:42:17;277.05;;;137.30;;
36415;SDS011;22447;44.530;18.620;2024-01-25T04:44:43;283.67;;;135.05;;
36415;SDS011;22447;44.530;18.620;2024-01-25T04:47:09;291.98;;;141.38;;
36415;SDS011;22447;44.530;18.620;2024-01-25T04:49:35;287.08;;;139.15;;
36415;SDS011;22447;44.530;18.620;2024-01-25T04:52:01;240.63;;;122.50;;
36415;SDS011;22447;44.530;18.620;2024-01-25T04:54:27;238.15;;;119.95;;
36415;SDS011;22447;44.530;18.620;2024-01-25T04:56:53;251.35;;;125.40;;
36415;SDS011;22447;44.530;18.620;2024-01-25T04:59:20;248.13;;;122.68;;
36415;SDS011;22447;44.530;18.620;2024-01-25T05:01:46;241.05;;;120.50;;
36415;SDS011;22447;44.530;18.620;2024-01-25T05:04:12;206.20;;;103.03;;
36415;SDS011;22447;44.530;18.620;2024-01-25T05:06:37;229.60;;;111.90;;
36415;SDS011;22447;44.530;18.620;2024-01-25T05:09:03;220.90;;;110.43;;
36415;SDS011;22447;44.530;18.620;2024-01-25T05:11:29;228.05;;;111.70;;
36415;SDS011;22447;44.530;18.620;2024-01-25T05:13:55;194.65;;;99.50;;
36415;SDS011;22447;44.530;18.620;2024-01-25T05:16:21;199.00;;;97.90;;
36415;SDS011;22447;44.530;18.620;2024-01-25T05:18:47;213.68;;;102.68;;
36415;SDS011;22447;44.530;18.620;2024-01-25T05:21:12;216.38;;;103.95;;
36415;SDS011;22447;44.530;18.620;2024-01-25T05:23:38;200.48;;;98.53;;
36415;SDS011;22447;44.530;18.620;2024-01-25T05:26:05;178.10;;;91.55;;
36415;SDS011;22447;44.530;18.620;2024-01-25T05:28:31;168.50;;;86.25;;
36415;SDS011;22447;44.530;18.620;2024-01-25T05:30:57;183.43;;;88.18;;
36415;SDS011;22447;44.530;18.620;2024-01-25T05:33:23;207.95;;;94.45;;
36415;SDS011;22447;44.530;18.620;2024-01-25T05:35:49;191.98;;;93.03;;
36415;SDS011;22447;44.530;18.620;2024-01-25T05:38:15;185.27;;;92.80;;
36415;SDS011;22447;44.530;18.620;2024-01-25T05:40:41;207.77;;;100.93;;
36415;SDS011;22447;44.530;18.620;2024-01-25T05:43:07;196.98;;;96.43;;
36415;SDS011;22447;44.530;18.620;2024-01-25T05:45:33;196.80;;;99.22;;
36415;SDS011;22447;44.530;18.620;2024-01-25T05:47:59;212.30;;;105.68;;
36415;SDS011;22447;44.530;18.620;2024-01-25T05:50:25;184.60;;;86.97;;
36415;SDS011;22447;44.530;18.620;2024-01-25T05:52:51;158.25;;;76.95;;
36415;SDS011;22447;44.530;18.620;2024-01-25T05:55:17;180.77;;;87.22;;
36415;SDS011;22447;44.530;18.620;2024-01-25T05:57:43;169.43;;;84.97;;
36415;SDS011;22447;44.530;18.620;2024-01-25T06:00:11;176.10;;;85.72;;
36415;SDS011;22447;44.530;18.620;2024-01-25T06:02:38;188.13;;;95.78;;
36415;SDS011;22447;44.530;18.620;2024-01-25T06:05:04;176.85;;;90.18;;
36415;SDS011;22447;44.530;18.620;2024-01-25T06:07:30;149.10;;;73.07;;
36415;SDS011;22447;44.530;18.620;2024-01-25T06:09:56;161.25;;;76.90;;
36415;SDS011;22447;44.530;18.620;2024-01-25T06:12:22;159.23;;;79.00;;
36415;SDS011;22447;44.530;18.620;2024-01-25T06:14:47;189.05;;;90.22;;
36415;SDS011;22447;44.530;18.620;2024-01-25T06:17:13;157.23;;;81.20;;
36415;SDS011;22447;44.530;18.620;2024-01-25T06:19:39;170.68;;;88.68;;
36415;SDS011;22447;44.530;18.620;2024-01-25T06:22:05;208.88;;;102.13;;
36415;SDS011;22447;44.530;18.620;2024-01-25T06:24:31;172.85;;;82.68;;
36415;SDS011;22447;44.530;18.620;2024-01-25T06:31:42;172.38;;;81.47;;
36415;SDS011;22447;44.530;18.620;2024-01-25T06:34:09;173.43;;;81.32;;
36415;SDS011;22447;44.530;18.620;2024-01-25T06:36:35;168.00;;;83.38;;
36415;SDS011;22447;44.530;18.620;2024-01-25T06:39:01;176.02;;;86.75;;
36415;SDS011;22447;44.530;18.620;2024-01-25T06:41:28;152.60;;;78.65;;
36415;SDS011;22447;44.530;18.620;2024-01-25T06:43:54;172.38;;;86.78;;
36415;SDS011;22447;44.530;18.620;2024-01-25T06:46:19;167.68;;;81.65;;
36415;SDS011;22447;44.530;18.620;2024-01-25T06:48:45;126.95;;;62.33;;
36415;SDS011;22447;44.530;18.620;2024-01-25T06:51:11;149.82;;;78.47;;
36415;SDS011;22447;44.530;18.620;2024-01-25T06:53:39;175.77;;;82.85;;
36415;SDS011;22447;44.530;18.620;2024-01-25T06:56:05;165.77;;;79.80;;
36415;SDS011;22447;44.530;18.620;2024-01-25T06:58:31;161.35;;;80.18;;
36415;SDS011;22447;44.530;18.620;2024-01-25T07:00:57;168.35;;;81.70;;
36415;SDS011;22447;44.530;18.620;2024-01-25T07:03:24;182.00;;;91.93;;
36415;SDS011;22447;44.530;18.620;2024-01-25T07:05:50;202.45;;;95.28;;
36415;SDS011;22447;44.530;18.620;2024-01-25T07:08:16;192.63;;;94.28;;
36415;SDS011;22447;44.530;18.620;2024-01-25T07:10:42;181.85;;;89.93;;
36415;SDS011;22447;44.530;18.620;2024-01-25T07:13:09;167.02;;;87.85;;
36415;SDS011;22447;44.530;18.620;2024-01-25T07:15:35;142.82;;;74.63;;
36415;SDS011;22447;44.530;18.620;2024-01-25T07:18:01;162.30;;;76.95;;
36415;SDS011;22447;44.530;18.620;2024-01-25T07:20:27;181.00;;;85.95;;
36415;SDS011;22447;44.530;18.620;2024-01-25T07:22:53;179.07;;;84.65;;
36415;SDS011;22447;44.530;18.620;2024-01-25T07:25:20;163.48;;;85.20;;
36415;SDS011;22447;44.530;18.620;2024-01-25T07:27:46;165.38;;;87.13;;
36415;SDS011;22447;44.530;18.620;2024-01-25T07:30:12;138.90;;;69.10;;
36415;SDS011;22447;44.530;18.620;2024-01-25T07:32:39;155.65;;;76.72;;
36415;SDS011;22447;44.530;18.620;2024-01-25T07:35:08;169.38;;;82.70;;
36415;SDS011;22447;44.530;18.620;2024-01-25T07:37:37;189.65;;;96.50;;
36415;SDS011;22447;44.530;18.620;2024-01-25T07:40:04;184.70;;;93.70;;
36415;SDS011;22447;44.530;18.620;2024-01-25T07:42:31;182.88;;;95.60;;
36415;SDS011;22447;44.530;18.620;2024-01-25T07:44:58;174.35;;;88.30;;
36415;SDS011;22447;44.530;18.620;2024-01-25T07:48:47;189.90;;;99.97;;
36415;SDS011;22447;44.530;18.620;2024-01-25T07:51:13;219.07;;;107.85;;
36415;SDS011;22447;44.530;18.620;2024-01-25T07:53:39;245.05;;;120.90;;
36415;SDS011;22447;44.530;18.620;2024-01-25T07:56:08;243.80;;;120.40;;
36415;SDS011;22447;44.530;18.620;2024-01-25T07:58:35;266.45;;;127.28;;
36415;SDS011;22447;44.530;18.620;2024-01-25T08:01:04;277.02;;;133.30;;
36415;SDS011;22447;44.530;18.620;2024-01-25T08:03:31;270.67;;;131.10;;
36415;SDS011;22447;44.530;18.620;2024-01-25T08:05:58;277.10;;;133.55;;
36415;SDS011;22447;44.530;18.620;2024-01-25T08:08:25;275.17;;;131.55;;
36415;SDS011;22447;44.530;18.620;2024-01-25T08:10:51;228.90;;;115.60;;
36415;SDS011;22447;44.530;18.620;2024-01-25T08:13:17;260.05;;;129.05;;
36415;SDS011;22447;44.530;18.620;2024-01-25T08:15:43;259.80;;;126.60;;
36415;SDS011;22447;44.530;18.620;2024-01-25T08:18:08;235.40;;;115.82;;
36415;SDS011;22447;44.530;18.620;2024-01-25T08:20:36;228.50;;;115.22;;
36415;SDS011;22447;44.530;18.620;2024-01-25T08:23:03;229.98;;;112.18;;
36415;SDS011;22447;44.530;18.620;2024-01-25T08:25:29;224.50;;;109.13;;
36415;SDS011;22447;44.530;18.620;2024-01-25T08:27:55;206.85;;;106.32;;
36415;SDS011;22447;44.530;18.620;2024-01-25T08:30:20;214.55;;;106.90;;
36415;SDS011;22447;44.530;18.620;2024-01-25T08:32:46;205.32;;;104.85;;
36415;SDS011;22447;44.530;18.620;2024-01-25T08:35:12;195.75;;;104.00;;
36415;SDS011;22447;44.530;18.620;2024-01-25T08:37:38;213.65;;;107.35;;
36415;SDS011;22447;44.530;18.620;2024-01-25T08:40:05;199.35;;;105.90;;
36415;SDS011;22447;44.530;18.620;2024-01-25T08:42:32;204.30;;;104.07;;
36415;SDS011;22447;44.530;18.620;2024-01-25T08:44:58;207.50;;;112.90;;
36415;SDS011;22447;44.530;18.620;2024-01-25T08:47:23;220.52;;;108.20;;
36415;SDS011;22447;44.530;18.620;2024-01-25T08:49:49;201.48;;;106.78;;
36415;SDS011;22447;44.530;18.620;2024-01-25T08:52:15;230.68;;;119.20;;
36415;SDS011;22447;44.530;18.620;2024-01-25T08:54:41;220.55;;;115.95;;
36415;SDS011;22447;44.530;18.620;2024-01-25T08:57:07;214.07;;;115.35;;
36415;SDS011;22447;44.530;18.620;2024-01-25T08:59:33;239.48;;;127.40;;
36415;SDS011;22447;44.530;18.620;2024-01-25T09:02:05;245.23;;;134.23;;
36415;SDS011;22447;44.530;18.620;2024-01-25T09:04:31;246.93;;;133.93;;
36415;SDS011;22447;44.530;18.620;2024-01-25T09:06:58;249.50;;;135.68;;
36415;SDS011;22447;44.530;18.620;2024-01-25T09:09:24;253.85;;;139.65;;
36415;SDS011;22447;44.530;18.620;2024-01-25T09:11:51;320.17;;;169.20;;
36415;SDS011;22447;44.530;18.620;2024-01-25T09:14:16;308.58;;;165.70;;
36415;SDS011;22447;44.530;18.620;2024-01-25T09:16:42;268.67;;;148.40;;
36415;SDS011;22447;44.530;18.620;2024-01-25T09:19:08;269.83;;;144.02;;
36415;SDS011;22447;44.530;18.620;2024-01-25T09:21:34;206.57;;;116.80;;
36415;SDS011;22447;44.530;18.620;2024-01-25T09:24:03;245.00;;;132.63;;
36415;SDS011;22447;44.530;18.620;2024-01-25T09:26:29;242.13;;;120.05;;
36415;SDS011;22447;44.530;18.620;2024-01-25T09:28:55;107.60;;;57.42;;
36415;SDS011;22447;44.530;18.620;2024-01-25T09:31:20;101.10;;;57.10;;
36415;SDS011;22447;44.530;18.620;2024-01-25T09:33:46;98.03;;;55.70;;
36415;SDS011;22447;44.530;18.620;2024-01-25T09:36:12;73.53;;;40.83;;
36415;SDS011;22447;44.530;18.620;2024-01-25T09:38:38;70.70;;;39.05;;
36415;SDS011;22447;44.530;18.620;2024-01-25T09:41:04;63.45;;;35.55;;
36415;SDS011;22447;44.530;18.620;2024-01-25T09:43:30;86.00;;;47.05;;
36415;SDS011;22447;44.530;18.620;2024-01-25T09:45:56;102.03;;;54.45;;
36415;SDS011;22447;44.530;18.620;2024-01-25T09:48:22;92.30;;;51.97;;
36415;SDS011;22447;44.530;18.620;2024-01-25T09:50:51;94.45;;;50.97;;
36415;SDS011;22447;44.530;18.620;2024-01-25T09:53:21;89.18;;;49.88;;
36415;SDS011;22447;44.530;18.620;2024-01-25T09:55:54;88.50;;;49.30;;
36415;SDS011;22447;44.530;18.620;2024-01-25T09:58:42;87.32;;;48.75;;
36415;SDS011;22447;44.530;18.620;2024-01-25T10:01:14;90.90;;;49.70;;
36415;SDS011;22447;44.530;18.620;2024-01-25T10:03:47;77.43;;;42.55;;
36415;SDS011;22447;44.530;18.620;2024-01-25T10:06:13;73.47;;;40.95;;
36415;SDS011;22447;44.530;18.620;2024-01-25T10:08:40;70.28;;;39.72;;
36415;SDS011;22447;44.530;18.620;2024-01-25T10:11:07;70.15;;;36.67;;
36415;SDS011;22447;44.530;18.620;2024-01-25T10:13:49;78.53;;;39.83;;
36415;SDS011;22447;44.530;18.620;2024-01-25T10:16:16;57.70;;;29.83;;
36415;SDS011;22447;44.530;18.620;2024-01-25T10:18:45;57.00;;;29.67;;
36415;SDS011;22447;44.530;18.620;2024-01-25T10:21:12;52.45;;;26.33;;
36415;SDS011;22447;44.530;18.620;2024-01-25T10:23:39;52.85;;;29.63;;
36415;SDS011;22447;44.530;18.620;2024-01-25T10:26:09;56.10;;;30.42;;
36415;SDS011;22447;44.530;18.620;2024-01-25T10:28:35;48.50;;;25.13;;
36415;SDS011;22447;44.530;18.620;2024-01-25T10:31:01;51.15;;;22.95;;
36415;SDS011;22447;44.530;18.620;2024-01-25T10:33:29;55.60;;;23.00;;
36415;SDS011;22447;44.530;18.620;2024-01-25T10:35:56;61.30;;;23.00;;
36415;SDS011;22447;44.530;18.620;2024-01-25T10:38:30;48.42;;;21.48;;
36415;SDS011;22447;44.530;18.620;2024-01-25T10:41:00;52.28;;;20.33;;
36415;SDS011;22447;44.530;18.620;2024-01-25T10:43:27;55.53;;;19.17;;
36415;SDS011;22447;44.530;18.620;2024-01-25T10:45:56;54.60;;;17.75;;
36415;SDS011;22447;44.530;18.620;2024-01-25T10:48:27;53.50;;;18.33;;
36415;SDS011;22447;44.530;18.620;2024-01-25T10:50:54;44.20;;;16.30;;
36415;SDS011;22447;44.530;18.620;2024-01-25T10:53:21;61.25;;;18.55;;
36415;SDS011;22447;44.530;18.620;2024-01-25T10:55:48;48.95;;;17.17;;
36415;SDS011;22447;44.530;18.620;2024-01-25T10:58:18;52.83;;;17.65;;
36415;SDS011;22447;44.530;18.620;2024-01-25T11:00:51;51.95;;;17.15;;
36415;SDS011;22447;44.530;18.620;2024-01-25T11:03:25;36.22;;;16.15;;
36415;SDS011;22447;44.530;18.620;2024-01-25T11:06:05;52.05;;;17.60;;
36415;SDS011;22447;44.530;18.620;2024-01-25T11:08:35;53.47;;;16.90;;
36415;SDS011;22447;44.530;18.620;2024-01-25T11:11:09;49.05;;;17.33;;
36415;SDS011;22447;44.530;18.620;2024-01-25T11:13:39;29.45;;;15.48;;
36415;SDS011;22447;44.530;18.620;2024-01-25T11:16:16;53.35;;;17.83;;
36415;SDS011;22447;44.530;18.620;2024-01-25T11:18:47;44.42;;;17.17;;
36415;SDS011;22447;44.530;18.620;2024-01-25T11:21:21;52.13;;;23.10;;
36415;SDS011;22447;44.530;18.620;2024-01-25T11:26:46;52.55;;;20.13;;
36415;SDS011;22447;44.530;18.620;2024-01-25T11:29:12;42.35;;;21.92;;
36415;SDS011;22447;44.530;18.620;2024-01-25T11:31:45;46.35;;;21.63;;
36415;SDS011;22447;44.530;18.620;2024-01-25T11:34:12;42.90;;;20.60;;
36415;SDS011;22447;44.530;18.620;2024-01-25T11:36:40;59.40;;;24.17;;
36415;SDS011;22447;44.530;18.620;2024-01-25T11:39:11;57.95;;;25.15;;
36415;SDS011;22447;44.530;18.620;2024-01-25T11:41:37;67.00;;;23.38;;
36415;SDS011;22447;44.530;18.620;2024-01-25T11:44:04;60.33;;;22.25;;
36415;SDS011;22447;44.530;18.620;2024-01-25T11:46:30;36.80;;;20.65;;
36415;SDS011;22447;44.530;18.620;2024-01-25T11:48:57;63.53;;;23.85;;
36415;SDS011;22447;44.530;18.620;2024-01-25T11:51:23;54.10;;;22.90;;
36415;SDS011;22447;44.530;18.620;2024-01-25T11:53:49;50.13;;;23.50;;
36415;SDS011;22447;44.530;18.620;2024-01-25T11:56:19;58.17;;;25.10;;
36415;SDS011;22447;44.530;18.620;2024-01-25T11:58:49;66.15;;;24.17;;
36415;SDS011;22447;44.530;18.620;2024-01-25T12:01:16;50.78;;;22.80;;
36415;SDS011;22447;44.530;18.620;2024-01-25T12:03:43;27.85;;;13.13;;
36415;SDS011;22447;44.530;18.620;2024-01-25T12:06:09;19.30;;;10.05;;
36415;SDS011;22447;44.530;18.620;2024-01-25T12:08:35;18.90;;;10.68;;
36415;SDS011;22447;44.530;18.620;2024-01-25T12:11:08;11.23;;;6.40;;
36415;SDS011;22447;44.530;18.620;2024-01-25T12:13:35;15.45;;;5.97;;
36415;SDS011;22447;44.530;18.620;2024-01-25T12:16:03;6.68;;;3.78;;
36415;SDS011;22447;44.530;18.620;2024-01-25T12:18:30;14.43;;;5.03;;
36415;SDS011;22447;44.530;18.620;2024-01-25T12:20:59;15.25;;;5.97;;
36415;SDS011;22447;44.530;18.620;2024-01-25T12:23:36;20.03;;;6.57;;
36415;SDS011;22447;44.530;18.620;2024-01-25T12:26:04;16.65;;;6.07;;
36415;SDS011;22447;44.530;18.620;2024-01-25T12:28:33;16.00;;;5.35;;
36415;SDS011;22447;44.530;18.620;2024-01-25T12:31:00;16.00;;;5.18;;
36415;SDS011;22447;44.530;18.620;2024-01-25T12:33:28;14.90;;;5.22;;
36415;SDS011;22447;44.530;18.620;2024-01-25T12:35:55;8.45;;;4.13;;
36415;SDS011;22447;44.530;18.620;2024-01-25T12:38:21;10.82;;;3.63;;
36415;SDS011;22447;44.530;18.620;2024-01-25T12:40:48;10.02;;;4.72;;
36415;SDS011;22447;44.530;18.620;2024-01-25T12:43:15;13.75;;;6.07;;
36415;SDS011;22447;44.530;18.620;2024-01-25T12:45:42;13.45;;;5.82;;
36415;SDS011;22447;44.530;18.620;2024-01-25T12:48:09;27.30;;;11.15;;
36415;SDS011;22447;44.530;18.620;2024-01-25T12:50:35;23.67;;;11.68;;
36415;SDS011;22447;44.530;18.620;2024-01-25T12:53:01;22.40;;;9.68;;
36415;SDS011;22447;44.530;18.620;2024-01-25T12:55:28;24.42;;;8.70;;
36415;SDS011;22447;44.530;18.620;2024-01-25T12:57:55;24.58;;;8.23;;
36415;SDS011;22447;44.530;18.620;2024-01-25T13:00:24;15.93;;;5.40;;
36415;SDS011;22447;44.530;18.620;2024-01-25T13:02:50;10.00;;;4.88;;
36415;SDS011;22447;44.530;18.620;2024-01-25T13:05:16;25.73;;;7.68;;
36415;SDS011;22447;44.530;18.620;2024-01-25T13:07:42;22.92;;;6.00;;
36415;SDS011;22447;44.530;18.620;2024-01-25T13:10:08;19.63;;;8.32;;
36415;SDS011;22447;44.530;18.620;2024-01-25T13:12:36;21.95;;;9.65;;
36415;SDS011;22447;44.530;18.620;2024-01-25T13:15:03;21.70;;;8.82;;
36415;SDS011;22447;44.530;18.620;2024-01-25T13:17:35;27.02;;;8.68;;
36415;SDS011;22447;44.530;18.620;2024-01-25T13:20:02;49.00;;;14.40;;
36415;SDS011;22447;44.530;18.620;2024-01-25T13:22:31;19.40;;;9.32;;
36415;SDS011;22447;44.530;18.620;2024-01-25T13:25:00;12.80;;;5.80;;
36415;SDS011;22447;44.530;18.620;2024-01-25T13:27:27;18.88;;;9.00;;
36415;SDS011;22447;44.530;18.620;2024-01-25T13:29:53;47.75;;;16.15;;
36415;SDS011;22447;44.530;18.620;2024-01-25T13:32:20;12.70;;;4.60;;
36415;SDS011;22447;44.530;18.620;2024-01-25T13:34:46;24.13;;;9.32;;
36415;SDS011;22447;44.530;18.620;2024-01-25T13:37:12;14.48;;;3.72;;
36415;SDS011;22447;44.530;18.620;2024-01-25T13:39:37;22.17;;;8.95;;
36415;SDS011;22447;44.530;18.620;2024-01-25T13:42:03;7.53;;;3.33;;
36415;SDS011;22447;44.530;18.620;2024-01-25T13:44:29;21.83;;;6.82;;
36415;SDS011;22447;44.530;18.620;2024-01-25T13:46:55;11.63;;;4.82;;
36415;SDS011;22447;44.530;18.620;2024-01-25T13:49:21;14.98;;;7.15;;
36415;SDS011;22447;44.530;18.620;2024-01-25T13:51:47;15.50;;;6.75;;
36415;SDS011;22447;44.530;18.620;2024-01-25T13:54:13;52.42;;;19.30;;
36415;SDS011;22447;44.530;18.620;2024-01-25T13:56:39;42.50;;;11.63;;
36415;SDS011;22447;44.530;18.620;2024-01-25T13:59:06;23.13;;;7.50;;
36415;SDS011;22447;44.530;18.620;2024-01-25T14:01:32;26.83;;;8.85;;
36415;SDS011;22447;44.530;18.620;2024-01-25T14:03:58;21.58;;;7.40;;